createdAt,value
2019-05-11T00:01:11.990Z,100335.73
2019-05-11T00:03:41.363Z,100335.73
2019-05-11T00:06:10.723Z,100335.28
2019-05-11T00:08:40.075Z,100325.77
2019-05-11T00:11:09.473Z,100323.23
2019-05-11T00:13:38.834Z,100313.71
2019-05-11T00:16:08.198Z,100318.52
2019-05-11T00:18:38.210Z,100317.70
2019-05-11T00:21:07.568Z,100318.23
2019-05-11T00:23:36.921Z,100310.88
2019-05-11T00:26:06.278Z,100318.72
2019-05-11T00:28:35.631Z,100320.91
2019-05-11T00:31:05.184Z,100313.97
2019-05-11T00:33:34.544Z,100312.67
2019-05-11T00:36:03.981Z,100314.41
2019-05-11T00:38:33.321Z,100314.86
2019-05-11T00:41:02.672Z,100313.10
2019-05-11T00:43:32.037Z,100313.56
2019-05-11T00:46:01.392Z,100314.45
2019-05-11T00:48:30.761Z,100309.23
2019-05-11T00:51:01.176Z,100310.95
2019-05-11T00:53:30.550Z,100303.48
2019-05-11T00:55:59.899Z,100313.91
2019-05-11T00:58:29.259Z,100305.61
2019-05-11T01:00:58.612Z,100299.06
2019-05-11T01:03:28.000Z,100284.84
2019-05-11T01:05:57.355Z,100293.86
2019-05-11T01:08:26.714Z,100293.86
2019-05-11T01:10:56.071Z,100281.35
2019-05-11T01:13:25.812Z,100289.51
2019-05-11T01:15:55.165Z,100280.41
2019-05-11T01:18:24.562Z,100286.42
2019-05-11T01:20:53.942Z,100283.40
2019-05-11T01:23:23.323Z,100278.19
2019-05-11T01:25:52.696Z,100281.30
2019-05-11T01:28:22.068Z,100270.98
2019-05-11T01:30:51.443Z,100282.24
2019-05-11T01:33:20.848Z,100280.06
2019-05-11T01:35:51.194Z,100270.52
2019-05-11T01:38:20.650Z,100271.79
2019-05-11T01:40:58.912Z,100269.62
2019-05-11T01:43:21.099Z,100278.76
2019-05-11T01:45:50.457Z,100275.70
2019-05-11T01:48:19.824Z,100281.70
2019-05-11T01:50:49.176Z,100268.23
2019-05-11T01:53:18.549Z,100268.23
2019-05-11T01:55:47.928Z,100276.41
2019-05-11T01:58:17.307Z,100278.17
2019-05-11T02:00:46.670Z,100276.89
2019-05-11T02:03:16.211Z,100271.25
2019-05-11T02:05:45.601Z,100275.16
2019-05-11T02:08:14.961Z,100279.02
2019-05-11T02:10:44.394Z,100269.38
2019-05-11T02:13:13.708Z,100269.38
2019-05-11T02:15:43.073Z,100261.20
2019-05-11T02:18:13.104Z,100270.27
2019-05-11T02:20:42.501Z,100270.27
2019-05-11T02:23:11.879Z,100261.63
2019-05-11T02:25:41.225Z,100261.63
2019-05-11T02:28:10.581Z,100263.84
2019-05-11T02:30:39.957Z,100271.74
2019-05-11T02:33:09.311Z,100269.61
2019-05-11T02:35:38.724Z,100268.31
2019-05-11T02:38:08.061Z,100270.92
2019-05-11T02:40:37.458Z,100263.16
2019-05-11T02:43:06.912Z,100274.02
2019-05-11T02:45:40.989Z,100277.92
2019-05-11T02:48:10.355Z,100277.52
2019-05-11T02:50:39.779Z,100281.44
2019-05-11T02:53:09.644Z,100277.11
2019-05-11T02:55:39.551Z,100273.67
2019-05-11T02:58:09.287Z,100273.67
2019-05-11T03:00:43.979Z,100273.67
2019-05-11T03:03:14.417Z,100271.52
2019-05-11T03:05:43.769Z,100261.17
2019-05-11T03:08:13.160Z,100274.63
2019-05-11T03:10:42.517Z,100278.13
2019-05-11T03:13:11.861Z,100275.52
2019-05-11T03:15:41.291Z,100272.52
2019-05-11T03:18:10.641Z,100272.50
2019-05-11T03:20:40.010Z,100273.46
2019-05-11T03:23:09.347Z,100273.46
2019-05-11T03:25:38.748Z,100280.34
2019-05-11T03:28:08.046Z,100287.80
2019-05-11T03:30:37.420Z,100290.36
2019-05-11T03:33:07.746Z,100292.53
2019-05-11T03:35:38.114Z,100286.86
2019-05-11T03:38:07.488Z,100288.63
2019-05-11T03:40:36.850Z,100293.44
2019-05-11T03:43:06.204Z,100283.01
2019-05-11T03:45:35.566Z,100284.36
2019-05-11T03:48:04.937Z,100288.70
2019-05-11T03:50:34.311Z,100291.33
2019-05-11T03:53:03.733Z,100283.95
2019-05-11T03:55:33.111Z,100287.04
2019-05-11T03:58:02.497Z,100284.50
2019-05-11T04:00:31.866Z,100280.19
2019-05-11T04:03:01.270Z,100273.23
2019-05-11T04:05:30.757Z,100278.41
2019-05-11T04:08:00.103Z,100276.27
2019-05-11T04:10:29.478Z,100275.84
2019-05-11T04:12:58.835Z,100276.69
2019-05-11T04:15:28.192Z,100274.97
2019-05-11T04:17:57.573Z,100280.19
2019-05-11T04:20:26.931Z,100272.84
2019-05-11T04:22:56.311Z,100265.06
2019-05-11T04:25:25.687Z,100268.52
2019-05-11T04:27:55.065Z,100271.11
2019-05-11T04:30:24.419Z,100271.52
2019-05-11T04:32:53.804Z,100271.05
2019-05-11T04:35:23.202Z,100279.70
2019-05-11T04:37:52.547Z,100279.70
2019-05-11T04:40:21.947Z,100276.69
2019-05-11T04:42:55.544Z,100271.45
2019-05-11T04:45:22.439Z,100269.27
2019-05-11T04:47:51.794Z,100271.40
2019-05-11T04:50:21.163Z,100260.95
2019-05-11T04:52:50.538Z,100268.73
2019-05-11T04:55:20.940Z,100266.12
2019-05-11T04:57:50.269Z,100277.44
2019-05-11T05:00:20.217Z,100270.86
2019-05-11T05:02:49.584Z,100279.52
2019-05-11T05:05:18.946Z,100276.88
2019-05-11T05:07:50.490Z,100275.52
2019-05-11T05:10:21.935Z,100275.47
2019-05-11T05:12:51.700Z,100277.65
2019-05-11T05:15:21.525Z,100281.13
2019-05-11T05:17:50.922Z,100273.24
2019-05-11T05:20:20.268Z,100280.20
2019-05-11T05:22:49.688Z,100282.33
2019-05-11T05:25:19.053Z,100281.08
2019-05-11T05:27:48.423Z,100286.25
2019-05-11T05:30:17.865Z,100284.52
2019-05-11T05:32:47.240Z,100283.63
2019-05-11T05:35:16.755Z,100285.46
2019-05-11T05:37:46.115Z,100286.72
2019-05-11T05:40:16.618Z,100288.48
2019-05-11T05:42:46.009Z,100291.58
2019-05-11T05:45:15.363Z,100294.67
2019-05-11T05:47:44.734Z,100296.75
2019-05-11T05:50:14.585Z,100296.14
2019-05-11T05:52:43.950Z,100294.73
2019-05-11T05:55:13.670Z,100304.44
2019-05-11T05:57:44.027Z,100304.44
2019-05-11T06:00:13.633Z,100312.63
2019-05-11T06:02:43.001Z,100312.63
2019-05-11T06:05:12.538Z,100319.56
2019-05-11T06:07:41.892Z,100324.73
2019-05-11T06:10:11.602Z,100324.65
2019-05-11T06:12:40.972Z,100327.66
2019-05-11T06:15:10.478Z,100333.22
2019-05-11T06:17:39.865Z,100333.22
2019-05-11T06:20:10.075Z,100339.73
2019-05-11T06:22:39.450Z,100339.81
2019-05-11T06:25:08.981Z,100336.26
2019-05-11T06:27:38.397Z,100330.53
2019-05-11T06:30:08.301Z,100335.27
2019-05-11T06:32:37.715Z,100328.25
2019-05-11T06:35:08.695Z,100326.46
2019-05-11T06:37:38.091Z,100329.14
2019-05-11T06:40:07.981Z,100331.78
2019-05-11T06:42:37.391Z,100334.94
2019-05-11T06:45:07.196Z,100332.80
2019-05-11T06:47:36.576Z,100329.23
2019-05-11T06:50:07.201Z,100339.67
2019-05-11T06:52:36.599Z,100339.67
2019-05-11T06:55:06.437Z,100351.42
2019-05-11T06:57:35.799Z,100349.70
2019-05-11T07:00:06.147Z,100348.02
2019-05-11T07:02:35.538Z,100359.73
2019-05-11T07:05:06.774Z,100364.02
2019-05-11T07:07:47.008Z,100359.66
2019-05-11T07:10:07.869Z,100360.09
2019-05-11T07:12:37.265Z,100359.87
2019-05-11T07:15:07.203Z,100359.87
2019-05-11T07:17:36.576Z,100365.82
2019-05-11T07:20:08.028Z,100370.55
2019-05-11T07:22:37.509Z,100372.62
2019-05-11T07:25:07.590Z,100366.00
2019-05-11T07:27:36.983Z,100362.91
2019-05-11T07:30:07.934Z,100371.14
2019-05-11T07:32:38.180Z,100361.53
2019-05-11T07:35:09.031Z,100360.97
2019-05-11T07:37:38.837Z,100356.11
2019-05-11T07:40:09.104Z,100358.91
2019-05-11T07:42:38.507Z,100362.97
2019-05-11T07:45:09.324Z,100374.30
2019-05-11T07:47:38.709Z,100373.97
2019-05-11T07:50:09.005Z,100379.48
2019-05-11T07:52:39.364Z,100381.02
2019-05-11T07:55:08.893Z,100390.11
2019-05-11T07:57:39.196Z,100391.63
2019-05-11T08:00:10.312Z,100390.57
2019-05-11T08:02:39.694Z,100399.12
2019-05-11T08:05:09.410Z,100394.79
2019-05-11T08:07:38.758Z,100404.80
2019-05-11T08:10:08.545Z,100411.81
2019-05-11T08:12:39.205Z,100405.34
2019-05-11T08:15:13.225Z,100414.31
2019-05-11T08:17:40.194Z,100410.25
2019-05-11T08:20:09.890Z,100409.64
2019-05-11T08:22:39.283Z,100410.50
2019-05-11T08:25:09.359Z,100413.91
2019-05-11T08:27:39.824Z,100414.28
2019-05-11T08:30:13.841Z,100423.27
2019-05-11T08:32:43.274Z,100425.22
2019-05-11T08:35:12.794Z,100429.16
2019-05-11T08:37:42.148Z,100437.43
2019-05-11T08:40:15.539Z,100436.69
2019-05-11T08:42:44.893Z,100444.84
2019-05-11T08:45:20.150Z,100440.75
2019-05-11T08:47:45.397Z,100443.53
2019-05-11T08:50:15.619Z,100450.06
2019-05-11T08:52:45.065Z,100449.47
2019-05-11T08:55:14.563Z,100446.73
2019-05-11T08:57:43.946Z,100454.72
2019-05-11T09:00:14.371Z,100455.22
2019-05-11T09:02:46.890Z,100448.48
2019-05-11T09:05:14.881Z,100446.70
2019-05-11T09:07:44.292Z,100450.51
2019-05-11T09:10:14.708Z,100458.43
2019-05-11T09:12:44.067Z,100463.33
2019-05-11T09:15:28.081Z,100462.22
2019-05-11T09:17:44.890Z,100468.63
2019-05-11T09:20:14.610Z,100467.45
2019-05-11T09:22:44.000Z,100467.80
2019-05-11T09:25:13.506Z,100471.27
2019-05-11T09:27:43.516Z,100475.23
2019-05-11T09:30:13.312Z,100477.41
2019-05-11T09:32:42.670Z,100486.19
2019-05-11T09:35:13.659Z,100498.18
2019-05-11T09:37:43.019Z,100497.13
2019-05-11T09:40:12.536Z,100499.82
2019-05-11T09:42:41.905Z,100509.59
2019-05-11T09:45:11.531Z,100512.45
2019-05-11T09:47:40.927Z,100515.72
2019-05-11T09:50:10.452Z,100526.33
2019-05-11T09:52:39.835Z,100526.91
2019-05-11T09:55:09.310Z,100518.67
2019-05-11T09:57:38.669Z,100510.73
2019-05-11T10:00:08.883Z,100518.05
2019-05-11T10:02:38.757Z,100519.14
2019-05-11T10:05:08.898Z,100522.98
2019-05-11T10:07:38.397Z,100523.27
2019-05-11T10:10:09.513Z,100525.66
2019-05-11T10:12:39.775Z,100533.13
2019-05-11T10:15:09.408Z,100534.05
2019-05-11T10:17:38.762Z,100536.85
2019-05-11T10:20:09.520Z,100540.12
2019-05-11T10:22:38.930Z,100536.13
2019-05-11T10:25:09.151Z,100541.09
2019-05-11T10:27:38.657Z,100552.71
2019-05-11T10:30:09.243Z,100556.14
2019-05-11T10:32:39.270Z,100558.09
2019-05-11T10:35:08.891Z,100561.47
2019-05-11T10:37:39.123Z,100566.13
2019-05-11T10:40:09.982Z,100568.44
2019-05-11T10:42:39.392Z,100576.86
2019-05-11T10:45:09.286Z,100570.89
2019-05-11T10:47:39.818Z,100577.00
2019-05-11T10:50:09.638Z,100581.16
2019-05-11T10:52:39.025Z,100584.70
2019-05-11T10:55:09.348Z,100586.33
2019-05-11T10:57:38.971Z,100587.47
2019-05-11T11:00:09.773Z,100583.90
2019-05-11T11:02:39.139Z,100587.04
2019-05-11T11:05:08.664Z,100596.59
2019-05-11T11:07:38.527Z,100587.49
2019-05-11T11:10:09.031Z,100596.08
2019-05-11T11:12:38.810Z,100600.58
2019-05-11T11:15:09.938Z,100598.68
2019-05-11T11:17:39.322Z,100605.32
2019-05-11T11:20:09.715Z,100600.65
2019-05-11T11:22:43.382Z,100599.86
2019-05-11T11:25:10.501Z,100603.56
2019-05-11T11:27:39.873Z,100609.02
2019-05-11T11:30:10.539Z,100625.23
2019-05-11T11:32:39.931Z,100618.34
2019-05-11T11:35:09.518Z,100616.75
2019-05-11T11:37:38.935Z,100621.41
2019-05-11T11:40:08.729Z,100627.30
2019-05-11T11:42:38.119Z,100620.95
2019-05-11T11:45:09.594Z,100627.98
2019-05-11T11:47:38.979Z,100634.63
2019-05-11T11:50:09.474Z,100635.91
2019-05-11T11:52:38.888Z,100643.59
2019-05-11T11:55:09.692Z,100638.47
2019-05-11T11:57:39.078Z,100640.77
2019-05-11T12:00:09.351Z,100630.34
2019-05-11T12:02:39.031Z,100648.06
2019-05-11T12:05:08.897Z,100661.05
2019-05-11T12:07:38.785Z,100663.37
2019-05-11T12:10:09.035Z,100668.63
2019-05-11T12:12:38.780Z,100675.41
2019-05-11T12:15:09.001Z,100678.59
2019-05-11T12:17:38.558Z,100680.23
2019-05-11T12:20:08.978Z,100678.55
2019-05-11T12:22:38.815Z,100677.87
2019-05-11T12:25:09.039Z,100688.53
2019-05-11T12:27:38.645Z,100689.97
2019-05-11T12:30:09.474Z,100701.48
2019-05-11T12:32:40.507Z,100709.52
2019-05-11T12:35:09.926Z,100709.80
2019-05-11T12:37:39.270Z,100709.08
2019-05-11T12:40:10.187Z,100699.78
2019-05-11T12:42:39.526Z,100702.98
2019-05-11T12:45:10.430Z,100709.16
2019-05-11T12:47:39.832Z,100727.70
2019-05-11T12:50:10.127Z,100726.38
2019-05-11T12:52:39.514Z,100737.80
2019-05-11T12:55:09.425Z,100736.59
2019-05-11T12:57:38.841Z,100743.80
2019-05-11T13:00:08.846Z,100763.65
2019-05-11T13:02:38.814Z,100767.62
2019-05-11T13:05:08.884Z,100771.58
2019-05-11T13:07:39.182Z,100775.63
2019-05-11T13:10:09.220Z,100778.20
2019-05-11T13:12:39.306Z,100778.61
2019-05-11T13:15:09.116Z,100784.69
2019-05-11T13:17:41.030Z,100793.86
2019-05-11T13:20:12.777Z,100789.61
2019-05-11T13:22:41.799Z,100798.74
2019-05-11T13:25:11.270Z,100810.14
2019-05-11T13:27:40.624Z,100810.25
2019-05-11T13:30:10.448Z,100817.86
2019-05-11T13:32:39.801Z,100822.23
2019-05-11T13:35:09.400Z,100821.65
2019-05-11T13:37:38.897Z,100825.28
2019-05-11T13:40:08.957Z,100824.57
2019-05-11T13:42:38.688Z,100828.76
2019-05-11T13:45:08.701Z,100836.13
2019-05-11T13:47:51.254Z,100845.65
2019-05-11T13:50:09.376Z,100842.61
2019-05-11T13:52:38.801Z,100851.16
2019-05-11T13:55:08.245Z,100856.92
2019-05-11T13:57:38.361Z,100852.39
2019-05-11T14:00:08.698Z,100857.65
2019-05-11T14:02:38.200Z,100858.53
2019-05-11T14:05:09.034Z,100866.73
2019-05-11T14:07:38.448Z,100870.19
2019-05-11T14:10:09.251Z,100871.45
2019-05-11T14:12:38.834Z,100870.78
2019-05-11T14:15:09.389Z,100877.69
2019-05-11T14:17:38.778Z,100871.33
2019-05-11T14:20:09.235Z,100877.73
2019-05-11T14:22:39.225Z,100884.47
2019-05-11T14:25:09.129Z,100885.76
2019-05-11T14:27:39.228Z,100878.28
2019-05-11T14:30:09.600Z,100892.92
2019-05-11T14:32:39.116Z,100893.33
2019-05-11T14:35:12.047Z,100890.63
2019-05-11T14:37:39.996Z,100913.77
2019-05-11T14:40:09.527Z,100916.86
2019-05-11T14:42:38.895Z,100923.69
2019-05-11T14:45:09.383Z,100924.43
2019-05-11T14:47:42.169Z,100927.25
2019-05-11T14:50:09.964Z,100930.62
2019-05-11T14:52:39.344Z,100936.61
2019-05-11T14:55:10.332Z,100936.23
2019-05-11T14:57:39.875Z,100929.84
2019-05-11T15:00:09.473Z,100940.57
2019-05-11T15:02:49.140Z,100949.69
2019-05-11T15:05:20.434Z,100963.16
2019-05-11T15:07:52.392Z,100967.39
2019-05-11T15:10:21.163Z,100973.78
2019-05-11T15:12:50.509Z,100978.52
2019-05-11T15:15:20.131Z,100982.73
2019-05-11T15:17:49.641Z,100988.97
2019-05-11T15:20:18.992Z,100995.75
2019-05-11T15:22:49.050Z,100997.13
2019-05-11T15:25:19.700Z,101009.66
2019-05-11T15:27:49.189Z,101003.27
2019-05-11T15:30:19.114Z,101009.45
2019-05-11T15:32:48.624Z,101016.30
2019-05-11T15:35:18.768Z,101018.19
2019-05-11T15:37:48.504Z,101020.72
2019-05-11T15:40:19.177Z,101021.34
2019-05-11T15:42:48.941Z,101020.58
2019-05-11T15:45:20.275Z,101028.32
2019-05-11T15:47:49.648Z,101026.23
2019-05-11T15:50:19.705Z,101020.98
2019-05-11T15:52:49.282Z,101041.94
2019-05-11T15:55:19.483Z,101040.27
2019-05-11T15:57:48.885Z,101049.40
2019-05-11T16:00:19.083Z,101057.44
2019-05-11T16:02:49.153Z,101051.36
2019-05-11T16:05:19.526Z,101065.21
2019-05-11T16:07:49.470Z,101060.03
2019-05-11T16:10:19.239Z,101081.69
2019-05-11T16:12:49.119Z,101091.42
2019-05-11T16:15:19.539Z,101095.86
2019-05-11T16:17:49.672Z,101098.97
2019-05-11T16:20:19.278Z,101096.27
2019-05-11T16:22:48.664Z,101098.39
2019-05-11T16:25:19.749Z,101105.19
2019-05-11T16:27:49.451Z,101121.52
2019-05-11T16:30:21.653Z,101119.88
2019-05-11T16:32:50.465Z,101126.59
2019-05-11T16:35:20.077Z,101131.13
2019-05-11T16:37:49.451Z,101137.36
2019-05-11T16:40:20.831Z,101138.82
2019-05-11T16:42:50.192Z,101140.68
2019-05-11T16:45:21.615Z,101150.42
2019-05-11T16:47:50.727Z,101148.77
2019-05-11T16:50:20.272Z,101149.81
2019-05-11T16:52:49.629Z,101153.84
2019-05-11T16:55:18.976Z,101154.77
2019-05-11T16:57:48.987Z,101155.77
2019-05-11T17:00:18.932Z,101165.13
2019-05-11T17:02:49.227Z,101168.78
2019-05-11T17:05:26.272Z,101170.20
2019-05-11T17:07:49.888Z,101179.56
2019-05-11T17:10:20.353Z,101180.17
2019-05-11T17:12:50.683Z,101177.23
2019-05-11T17:15:20.044Z,101189.22
2019-05-11T17:17:49.680Z,101189.80
2019-05-11T17:20:19.435Z,101192.92
2019-05-11T17:22:49.259Z,101206.10
2019-05-11T17:25:19.586Z,101204.89
2019-05-11T17:27:49.406Z,101210.73
2019-05-11T17:30:20.052Z,101215.19
2019-05-11T17:32:49.968Z,101219.20
2019-05-11T17:35:19.495Z,101234.20
2019-05-11T17:37:49.832Z,101232.44
2019-05-11T17:40:23.423Z,101241.30
2019-05-11T17:42:53.508Z,101249.72
2019-05-11T17:45:21.730Z,101250.70
2019-05-11T17:47:51.078Z,101257.83
2019-05-11T17:50:20.427Z,101262.28
2019-05-11T17:52:49.798Z,101275.48
2019-05-11T17:55:20.135Z,101275.13
2019-05-11T17:57:53.385Z,101281.35
2019-05-11T18:00:20.737Z,101283.20
2019-05-11T18:02:50.265Z,101292.05
2019-05-11T18:05:19.637Z,101294.34
2019-05-11T18:07:49.010Z,101295.30
2019-05-11T18:10:18.600Z,101297.52
2019-05-11T18:12:48.648Z,101304.13
2019-05-11T18:15:19.192Z,101312.91
2019-05-11T18:17:49.073Z,101320.85
2019-05-11T18:20:21.765Z,101324.91
2019-05-11T18:22:49.896Z,101325.00
2019-05-11T18:25:19.268Z,101333.41
2019-05-11T18:27:48.635Z,101340.00
2019-05-11T18:30:18.458Z,101353.59
2019-05-11T18:32:49.001Z,101356.31
2019-05-11T18:35:19.919Z,101361.61
2019-05-11T18:37:50.258Z,101369.95
2019-05-11T18:40:19.631Z,101366.58
2019-05-11T18:42:49.221Z,101373.20
2019-05-11T18:45:19.216Z,101378.10
2019-05-11T18:47:49.231Z,101393.89
2019-05-11T18:50:29.788Z,101400.09
2019-05-11T18:52:49.898Z,101396.63
2019-05-11T18:55:19.407Z,101404.15
2019-05-11T18:57:49.424Z,101413.83
2019-05-11T19:00:19.745Z,101423.50
2019-05-11T19:02:49.747Z,101426.19
2019-05-11T19:05:19.317Z,101435.39
2019-05-11T19:07:48.695Z,101437.65
2019-05-11T19:10:18.120Z,101442.06
2019-05-11T19:12:48.804Z,101438.61
2019-05-11T19:15:19.076Z,101449.55
2019-05-11T19:17:49.276Z,101452.22
2019-05-11T19:20:18.776Z,101458.81
2019-05-11T19:22:48.217Z,101459.73
2019-05-11T19:25:18.193Z,101471.55
2019-05-11T19:27:50.362Z,101473.33
2019-05-11T19:30:20.143Z,101479.46
2019-05-11T19:32:49.505Z,101493.89
2019-05-11T19:35:21.178Z,101498.70
2019-05-11T19:37:49.945Z,101508.30
2019-05-11T19:40:19.296Z,101514.44
2019-05-11T19:42:55.811Z,101523.17
2019-05-11T19:45:25.376Z,101525.36
2019-05-11T19:47:54.729Z,101534.98
2019-05-11T19:50:24.086Z,101534.09
2019-05-11T19:52:53.465Z,101546.73
2019-05-11T19:55:22.838Z,101550.66
2019-05-11T19:57:52.207Z,101550.67
2019-05-11T20:00:21.841Z,101557.64
2019-05-11T20:02:51.182Z,101562.00
2019-05-11T20:05:20.553Z,101579.86
2019-05-11T20:07:49.912Z,101588.55
2019-05-11T20:10:19.378Z,101595.51
2019-05-11T20:12:48.824Z,101600.28
2019-05-11T20:15:19.142Z,101622.02
2019-05-11T20:17:49.562Z,101622.02
2019-05-11T20:20:19.072Z,101627.21
2019-05-11T20:22:48.836Z,101626.30
2019-05-11T20:25:19.123Z,101638.91
2019-05-11T20:27:50.090Z,101641.51
2019-05-11T20:30:19.620Z,101650.19
2019-05-11T20:32:49.437Z,101652.31
2019-05-11T20:35:18.973Z,101652.31
2019-05-11T20:37:48.431Z,101663.59
2019-05-11T20:40:19.196Z,101664.41
2019-05-11T20:42:48.851Z,101667.42
2019-05-11T20:45:18.719Z,101672.62
2019-05-11T20:47:48.842Z,101673.34
2019-05-11T20:50:18.759Z,101686.84
2019-05-11T20:52:48.573Z,101686.84
2019-05-11T20:55:18.470Z,101692.00
2019-05-11T20:57:48.624Z,101698.48
2019-05-11T21:00:19.329Z,101708.88
2019-05-11T21:02:49.215Z,101709.25
2019-05-11T21:05:18.730Z,101708.78
2019-05-11T21:07:48.037Z,101713.51
2019-05-11T21:10:17.669Z,101715.18
2019-05-11T21:12:47.019Z,101721.21
2019-05-11T21:15:16.560Z,101722.47
2019-05-11T21:17:48.192Z,101729.41
2019-05-11T21:20:18.128Z,101734.55
2019-05-11T21:22:48.692Z,101742.31
2019-05-11T21:25:18.415Z,101747.89
2019-05-11T21:27:48.663Z,101762.55
2019-05-11T21:30:18.649Z,101762.97
2019-05-11T21:32:48.909Z,101771.14
2019-05-11T21:35:19.142Z,101767.14
2019-05-11T21:37:48.951Z,101777.50
2019-05-11T21:40:18.415Z,101773.09
2019-05-11T21:42:47.860Z,101772.99
2019-05-11T21:45:18.327Z,101776.80
2019-05-11T21:47:49.076Z,101775.87
2019-05-11T21:50:19.477Z,101780.13
2019-05-11T21:52:48.807Z,101788.35
2019-05-11T21:55:19.123Z,101791.33
2019-05-11T21:57:49.817Z,101787.36
2019-05-11T22:00:20.151Z,101791.67
2019-05-11T22:02:51.124Z,101797.22
2019-05-11T22:05:21.056Z,101803.20
2019-05-11T22:07:50.379Z,101809.64
2019-05-11T22:10:19.808Z,101817.81
2019-05-11T22:12:49.197Z,101825.58
2019-05-11T22:15:18.515Z,101828.96
2019-05-11T22:17:48.165Z,101833.72
2019-05-11T22:20:18.419Z,101846.20
2019-05-11T22:22:48.913Z,101850.42
2019-05-11T22:25:18.553Z,101847.30
2019-05-11T22:27:48.821Z,101854.61
2019-05-11T22:30:18.787Z,101858.02
2019-05-11T22:32:49.109Z,101861.02
2019-05-11T22:35:18.635Z,101863.58
2019-05-11T22:37:49.048Z,101865.28
2019-05-11T22:40:18.789Z,101877.80
2019-05-11T22:42:48.135Z,101878.19
2019-05-11T22:45:18.674Z,101882.41
2019-05-11T22:47:48.782Z,101894.91
2019-05-11T22:50:18.848Z,101893.92
2019-05-11T22:52:48.593Z,101898.22
2019-05-11T22:55:19.194Z,101893.88
2019-05-11T22:57:48.805Z,101897.23
2019-05-11T23:00:21.267Z,101907.98
2019-05-11T23:02:50.609Z,101913.48
2019-05-11T23:05:19.983Z,101918.53
2019-05-11T23:07:49.371Z,101916.63
2019-05-11T23:10:18.710Z,101925.63
2019-05-11T23:12:48.358Z,101930.27
2019-05-11T23:15:19.184Z,101931.45
2019-05-11T23:17:48.544Z,101940.44
2019-05-11T23:20:18.119Z,101938.58
2019-05-11T23:22:56.738Z,101942.37
2019-05-11T23:25:19.642Z,101952.60
2019-05-11T23:27:49.150Z,101946.44
2019-05-11T23:30:19.799Z,101953.62
2019-05-11T23:32:50.751Z,101963.03
2019-05-11T23:35:20.136Z,101961.16
2019-05-11T23:37:50.154Z,101970.14
2019-05-11T23:40:19.984Z,101974.82
2019-05-11T23:42:49.490Z,101980.34
2019-05-11T23:45:19.414Z,101976.33
2019-05-11T23:47:49.265Z,101978.34
2019-05-11T23:50:19.336Z,101976.47
2019-05-11T23:53:05.167Z,101982.00
2019-05-11T23:55:20.192Z,101982.77
2019-05-11T23:57:49.719Z,101989.94
